createdAt,value
2018-12-23T00:01:50.464Z,100578.76
2018-12-23T00:04:20.607Z,100577.74
2018-12-23T00:06:50.432Z,100581.38
2018-12-23T00:09:20.212Z,100580.97
2018-12-23T00:11:50.032Z,100573.98
2018-12-23T00:14:20.217Z,100569.30
2018-12-23T00:16:50.073Z,100570.47
2018-12-23T00:19:19.916Z,100574.64
2018-12-23T00:21:49.740Z,100579.33
2018-12-23T00:24:19.599Z,100582.02
2018-12-23T00:26:49.399Z,100586.48
2018-12-23T00:29:19.268Z,100589.64
2018-12-23T00:31:49.080Z,100583.33
2018-12-23T00:34:18.976Z,100588.25
2018-12-23T00:36:48.872Z,100592.64
2018-12-23T00:39:18.656Z,100595.56
2018-12-23T00:41:48.487Z,100595.56
2018-12-23T00:44:18.275Z,100600.04
2018-12-23T00:46:48.111Z,100602.44
2018-12-23T00:49:17.972Z,100598.45
2018-12-23T00:51:47.905Z,100588.06
2018-12-23T00:54:17.759Z,100596.78
2018-12-23T00:56:47.577Z,100591.38
2018-12-23T00:59:17.455Z,100590.45
2018-12-23T01:01:47.267Z,100603.75
2018-12-23T01:04:17.057Z,100602.05
2018-12-23T01:06:47.008Z,100602.05
2018-12-23T01:09:17.066Z,100607.81
2018-12-23T01:11:48.097Z,100613.91
2018-12-23T01:14:17.988Z,100614.95
2018-12-23T01:16:48.138Z,100614.80
2018-12-23T01:19:18.047Z,100609.42
2018-12-23T01:21:47.814Z,100624.63
2018-12-23T01:24:17.600Z,100616.95
2018-12-23T01:27:15.989Z,100616.40
2018-12-23T01:29:48.226Z,100627.16
2018-12-23T01:32:19.733Z,100625.75
2018-12-23T01:34:51.473Z,100619.73
2018-12-23T01:37:23.020Z,100616.95
2018-12-23T01:39:55.505Z,100625.48
2018-12-23T01:42:26.957Z,100621.78
2018-12-23T01:44:58.501Z,100624.92
2018-12-23T01:47:29.720Z,100624.17
2018-12-23T01:50:01.504Z,100624.08
2018-12-23T01:52:33.291Z,100625.94
2018-12-23T01:55:05.069Z,100621.78
2018-12-23T01:57:36.323Z,100615.80
2018-12-23T02:00:09.230Z,100613.87
2018-12-23T02:02:40.709Z,100609.41
2018-12-23T02:05:12.274Z,100613.97
2018-12-23T02:07:43.549Z,100624.16
2018-12-23T02:10:14.746Z,100627.88
2018-12-23T02:12:46.516Z,100624.73
2018-12-23T02:15:18.072Z,100623.44
2018-12-23T02:17:49.778Z,100631.75
2018-12-23T02:20:20.991Z,100627.34
2018-12-23T02:22:53.245Z,100625.64
2018-12-23T02:25:24.828Z,100615.23
2018-12-23T02:27:56.591Z,100621.52
2018-12-23T02:30:27.833Z,100629.48
2018-12-23T02:32:59.034Z,100619.57
2018-12-23T02:35:30.214Z,100616.31
2018-12-23T02:38:02.415Z,100618.70
2018-12-23T02:40:33.911Z,100628.34
2018-12-23T02:43:05.434Z,100630.59
2018-12-23T02:45:37.233Z,100631.23
2018-12-23T02:48:08.970Z,100618.75
2018-12-23T02:50:40.225Z,100622.05
2018-12-23T02:53:11.472Z,100622.65
2018-12-23T02:55:42.972Z,100619.66
2018-12-23T02:58:14.489Z,100623.37
2018-12-23T03:00:46.044Z,100612.27
2018-12-23T03:03:17.672Z,100612.80
2018-12-23T03:05:49.188Z,100610.80
2018-12-23T03:08:20.714Z,100609.98
2018-12-23T03:10:52.164Z,100621.17
2018-12-23T03:13:24.112Z,100621.06
2018-12-23T03:15:55.531Z,100620.92
2018-12-23T03:18:26.985Z,100629.26
2018-12-23T03:20:58.262Z,100623.52
2018-12-23T03:23:29.703Z,100623.52
2018-12-23T03:26:00.963Z,100624.33
2018-12-23T03:28:32.399Z,100623.13
2018-12-23T03:31:03.672Z,100634.66
2018-12-23T03:33:35.358Z,100626.97
2018-12-23T03:36:15.014Z,100635.09
2018-12-23T03:38:40.204Z,100628.81
2018-12-23T03:41:11.701Z,100628.22
2018-12-23T03:43:43.146Z,100623.87
2018-12-23T03:46:14.444Z,100623.31
2018-12-23T03:48:45.661Z,100629.45
2018-12-23T03:51:17.224Z,100635.69
2018-12-23T03:53:48.676Z,100628.88
2018-12-23T03:56:20.161Z,100629.23
2018-12-23T03:58:51.363Z,100631.90
2018-12-23T04:01:23.508Z,100627.73
2018-12-23T04:03:54.796Z,100629.97
2018-12-23T04:06:25.991Z,100631.50
2018-12-23T04:08:57.491Z,100633.34
2018-12-23T04:11:29.481Z,100630.73
2018-12-23T04:14:00.980Z,100637.30
2018-12-23T04:16:32.208Z,100636.77
2018-12-23T04:19:03.623Z,100625.55
2018-12-23T04:21:35.357Z,100625.91
2018-12-23T04:24:07.123Z,100624.22
2018-12-23T04:26:38.306Z,100622.82
2018-12-23T04:29:09.823Z,100618.44
2018-12-23T04:31:41.019Z,100620.30
2018-12-23T04:34:12.481Z,100617.53
2018-12-23T04:36:43.899Z,100619.95
2018-12-23T04:39:15.252Z,100621.80
2018-12-23T04:41:46.689Z,100626.15
2018-12-23T04:44:18.418Z,100626.22
2018-12-23T04:46:49.865Z,100625.13
2018-12-23T04:49:21.224Z,100624.58
2018-12-23T04:51:52.598Z,100624.47
2018-12-23T04:54:24.570Z,100632.18
2018-12-23T04:56:56.510Z,100627.20
2018-12-23T04:59:28.165Z,100627.66
2018-12-23T05:01:59.613Z,100628.29
2018-12-23T05:04:31.159Z,100633.83
2018-12-23T05:07:02.644Z,100646.63
2018-12-23T05:09:34.132Z,100640.63
2018-12-23T05:12:05.697Z,100639.02
2018-12-23T05:14:36.993Z,100633.27
2018-12-23T05:17:09.695Z,100636.53
2018-12-23T05:19:40.990Z,100633.02
2018-12-23T05:22:12.909Z,100632.00
2018-12-23T05:24:44.106Z,100628.53
2018-12-23T05:27:15.516Z,100635.86
2018-12-23T05:29:46.781Z,100632.42
2018-12-23T05:32:17.981Z,100633.34
2018-12-23T05:34:49.452Z,100631.23
2018-12-23T05:37:20.828Z,100628.47
2018-12-23T05:39:52.122Z,100626.33
2018-12-23T05:42:23.293Z,100620.22
2018-12-23T05:44:56.088Z,100624.16
2018-12-23T05:47:27.339Z,100618.75
2018-12-23T05:49:58.506Z,100633.34
2018-12-23T05:52:29.985Z,100635.83
2018-12-23T05:55:01.536Z,100628.33
2018-12-23T05:57:32.712Z,100626.95
2018-12-23T06:00:03.966Z,100627.70
2018-12-23T06:02:35.217Z,100628.92
2018-12-23T06:05:06.725Z,100628.33
2018-12-23T06:07:38.482Z,100628.78
2018-12-23T06:10:09.752Z,100631.09
2018-12-23T06:12:41.189Z,100633.52
2018-12-23T06:15:12.819Z,100639.27
2018-12-23T06:17:44.601Z,100637.13
2018-12-23T06:20:16.328Z,100639.93
2018-12-23T06:22:48.011Z,100653.70
2018-12-23T06:25:20.082Z,100653.59
2018-12-23T06:27:51.646Z,100657.70
2018-12-23T06:30:22.945Z,100656.30
2018-12-23T06:32:54.638Z,100658.78
2018-12-23T06:35:26.191Z,100660.47
2018-12-23T06:37:58.275Z,100663.56
2018-12-23T06:40:30.449Z,100663.10
2018-12-23T06:43:01.665Z,100658.20
2018-12-23T06:45:33.242Z,100659.95
2018-12-23T06:48:07.718Z,100661.25
2018-12-23T06:50:39.252Z,100664.96
2018-12-23T06:53:10.735Z,100665.17
2018-12-23T06:55:42.221Z,100671.94
2018-12-23T06:58:13.910Z,100667.42
2018-12-23T07:00:45.225Z,100670.36
2018-12-23T07:03:16.722Z,100669.66
2018-12-23T07:05:48.224Z,100659.11
2018-12-23T07:08:20.180Z,100655.74
2018-12-23T07:10:51.364Z,100658.37
2018-12-23T07:13:23.141Z,100657.53
2018-12-23T07:15:54.503Z,100662.16
2018-12-23T07:18:25.723Z,100669.38
2018-12-23T07:20:57.162Z,100669.45
2018-12-23T07:23:29.383Z,100674.29
2018-12-23T07:26:00.962Z,100669.13
2018-12-23T07:28:33.024Z,100672.82
2018-12-23T07:31:04.946Z,100677.52
2018-12-23T07:33:36.860Z,100679.66
2018-12-23T07:36:08.395Z,100670.78
2018-12-23T07:38:40.173Z,100673.17
2018-12-23T07:41:11.425Z,100669.17
2018-12-23T07:43:43.440Z,100669.34
2018-12-23T07:46:14.948Z,100663.34
2018-12-23T07:48:46.304Z,100663.53
2018-12-23T07:51:17.551Z,100666.12
2018-12-23T07:53:50.545Z,100661.70
2018-12-23T07:56:22.012Z,100663.94
2018-12-23T07:58:53.760Z,100661.52
2018-12-23T08:01:25.363Z,100661.28
2018-12-23T08:03:57.254Z,100654.27
2018-12-23T08:06:29.434Z,100659.17
2018-12-23T08:09:01.236Z,100661.28
2018-12-23T08:11:33.576Z,100666.02
2018-12-23T08:14:04.919Z,100662.97
2018-12-23T08:16:36.617Z,100663.07
2018-12-23T08:19:08.354Z,100665.14
2018-12-23T08:21:39.969Z,100663.91
2018-12-23T08:24:11.764Z,100664.50
2018-12-23T08:26:43.259Z,100665.23
2018-12-23T08:29:15.020Z,100669.59
2018-12-23T08:31:48.645Z,100667.28
2018-12-23T08:34:20.547Z,100667.34
2018-12-23T08:36:53.072Z,100670.25
2018-12-23T08:39:24.905Z,100666.29
2018-12-23T08:41:56.411Z,100672.78
2018-12-23T08:44:28.202Z,100671.66
2018-12-23T08:46:59.617Z,100664.36
2018-12-23T08:49:31.592Z,100678.35
2018-12-23T08:52:03.631Z,100669.93
2018-12-23T08:54:35.151Z,100666.03
2018-12-23T08:57:07.264Z,100670.34
2018-12-23T08:59:39.521Z,100664.18
2018-12-23T09:02:11.070Z,100656.70
2018-12-23T09:04:42.687Z,100658.27
2018-12-23T09:07:14.500Z,100657.84
2018-12-23T09:09:45.721Z,100662.92
2018-12-23T09:12:17.095Z,100658.83
2018-12-23T09:14:48.974Z,100660.15
2018-12-23T09:17:20.736Z,100658.67
2018-12-23T09:19:52.517Z,100660.90
2018-12-23T09:22:23.786Z,100658.80
2018-12-23T09:24:55.225Z,100650.89
2018-12-23T09:27:27.345Z,100643.47
2018-12-23T09:29:58.852Z,100642.73
2018-12-23T09:32:30.922Z,100642.27
2018-12-23T09:35:02.907Z,100644.97
2018-12-23T09:37:34.878Z,100630.52
2018-12-23T09:40:06.166Z,100627.73
2018-12-23T09:42:37.367Z,100623.83
2018-12-23T09:45:08.755Z,100619.45
2018-12-23T09:47:40.539Z,100624.84
2018-12-23T09:50:12.307Z,100616.78
2018-12-23T09:52:43.827Z,100619.11
2018-12-23T09:55:15.762Z,100620.11
2018-12-23T09:57:47.534Z,100616.52
2018-12-23T10:00:18.768Z,100619.66
2018-12-23T10:02:50.521Z,100616.59
2018-12-23T10:05:22.185Z,100615.30
2018-12-23T10:07:53.996Z,100605.17
2018-12-23T10:10:28.504Z,100603.59
2018-12-23T10:12:59.196Z,100595.08
2018-12-23T10:15:31.064Z,100594.43
2018-12-23T10:18:03.309Z,100592.18
2018-12-23T10:20:35.306Z,100585.95
2018-12-23T10:23:07.433Z,100576.86
2018-12-23T10:25:39.377Z,100572.22
2018-12-23T10:28:10.643Z,100577.11
2018-12-23T10:30:42.448Z,100569.05
2018-12-23T10:33:13.992Z,100564.42
2018-12-23T10:35:45.793Z,100561.84
2018-12-23T10:38:18.447Z,100557.37
2018-12-23T10:40:50.641Z,100553.39
2018-12-23T10:43:22.930Z,100547.47
2018-12-23T10:45:54.564Z,100547.92
2018-12-23T10:48:27.942Z,100539.17
2018-12-23T10:50:59.487Z,100539.08
2018-12-23T10:53:31.095Z,100536.58
2018-12-23T10:56:03.090Z,100532.02
2018-12-23T10:58:35.442Z,100521.43
2018-12-23T11:01:06.942Z,100516.73
2018-12-23T11:03:38.200Z,100511.49
2018-12-23T11:06:10.132Z,100505.00
2018-12-23T11:08:42.203Z,100493.45
2018-12-23T11:11:13.967Z,100484.16
2018-12-23T11:13:45.712Z,100484.36
2018-12-23T11:16:18.373Z,100474.14
2018-12-23T11:18:50.257Z,100473.97
2018-12-23T11:21:21.810Z,100460.11
2018-12-23T11:23:53.869Z,100454.82
2018-12-23T11:26:25.089Z,100452.22
2018-12-23T11:28:56.389Z,100440.52
2018-12-23T11:31:28.962Z,100438.84
2018-12-23T11:34:00.922Z,100430.67
2018-12-23T11:36:32.461Z,100427.89
2018-12-23T11:39:04.582Z,100419.63
2018-12-23T11:41:36.041Z,100422.18
2018-12-23T11:44:07.663Z,100413.80
2018-12-23T11:46:39.285Z,100411.08
2018-12-23T11:49:11.091Z,100401.31
2018-12-23T11:51:43.560Z,100397.25
2018-12-23T11:54:16.230Z,100398.94
2018-12-23T11:56:47.998Z,100397.29
2018-12-23T11:59:19.523Z,100391.17
2018-12-23T12:01:50.771Z,100391.90
2018-12-23T12:04:22.287Z,100390.81
2018-12-23T12:06:53.877Z,100398.07
2018-12-23T12:09:25.632Z,100383.72
2018-12-23T12:11:57.288Z,100374.50
2018-12-23T12:14:28.656Z,100378.59
2018-12-23T12:17:00.111Z,100378.20
2018-12-23T12:19:31.871Z,100373.80
2018-12-23T12:22:03.144Z,100368.41
2018-12-23T12:24:34.326Z,100359.89
2018-12-23T12:27:06.248Z,100359.40
2018-12-23T12:29:38.129Z,100355.81
2018-12-23T12:32:10.241Z,100351.55
2018-12-23T12:34:41.435Z,100343.81
2018-12-23T12:37:13.545Z,100339.28
2018-12-23T12:39:45.569Z,100332.64
2018-12-23T12:42:17.356Z,100328.83
2018-12-23T12:44:49.123Z,100332.64
2018-12-23T12:47:21.017Z,100321.36
2018-12-23T12:49:53.008Z,100320.41
2018-12-23T12:52:24.486Z,100314.48
2018-12-23T12:54:55.980Z,100305.20
2018-12-23T12:57:27.365Z,100301.44
2018-12-23T12:59:59.340Z,100297.35
2018-12-23T13:02:31.108Z,100288.09
2018-12-23T13:05:02.896Z,100285.77
2018-12-23T13:07:34.347Z,100283.75
2018-12-23T13:10:05.792Z,100276.88
2018-12-23T13:12:37.762Z,100276.16
2018-12-23T13:15:09.725Z,100265.58
2018-12-23T13:17:41.261Z,100258.19
2018-12-23T13:20:12.938Z,100257.44
2018-12-23T13:22:44.594Z,100252.80
2018-12-23T13:25:16.269Z,100243.41
2018-12-23T13:27:48.148Z,100249.11
2018-12-23T13:30:19.716Z,100240.48
2018-12-23T13:32:51.048Z,100235.05
2018-12-23T13:35:23.040Z,100229.67
2018-12-23T13:37:54.853Z,100226.51
2018-12-23T13:41:13.715Z,100219.12
2018-12-23T13:44:28.044Z,100201.78
2018-12-23T13:47:18.264Z,100189.55
2018-12-23T13:50:24.107Z,100176.71
2018-12-23T13:53:45.869Z,100178.02
2018-12-23T13:56:58.211Z,100159.05
2018-12-23T14:00:11.011Z,100160.66
2018-12-23T14:02:58.509Z,100146.94
2018-12-23T14:06:20.164Z,100146.22
2018-12-23T14:09:08.379Z,100133.69
2018-12-23T14:11:58.384Z,100117.69
2018-12-23T14:14:29.588Z,100114.58
2018-12-23T14:17:01.591Z,100111.98
2018-12-23T14:19:34.071Z,100108.42
2018-12-23T14:22:05.269Z,100099.82
2018-12-23T14:24:36.861Z,100096.77
2018-12-23T14:27:08.368Z,100105.56
2018-12-23T14:29:40.056Z,100097.87
2018-12-23T14:32:11.567Z,100086.59
2018-12-23T14:34:43.531Z,100072.80
2018-12-23T14:37:15.022Z,100062.91
2018-12-23T14:39:46.697Z,100050.30
2018-12-23T14:42:18.428Z,100046.26
2018-12-23T14:44:49.943Z,100039.02
2018-12-23T14:47:21.444Z,100030.16
2018-12-23T14:49:52.955Z,100020.19
2018-12-23T14:52:24.158Z,100011.69
2018-12-23T14:54:56.288Z,100006.19
2018-12-23T14:57:30.768Z,100007.69
2018-12-23T15:00:02.172Z,99997.81
2018-12-23T15:02:39.233Z,99981.17
2018-12-23T15:05:11.280Z,99981.75
2018-12-23T15:07:43.291Z,99971.63
2018-12-23T15:10:14.539Z,99961.27
2018-12-23T15:12:46.107Z,99961.61
2018-12-23T15:15:17.710Z,99949.02
2018-12-23T15:17:49.719Z,99951.78
2018-12-23T15:20:21.499Z,99940.49
2018-12-23T15:22:52.733Z,99931.59
2018-12-23T15:25:24.157Z,99928.41
2018-12-23T15:27:56.138Z,99926.20
2018-12-23T15:30:27.413Z,99918.97
2018-12-23T15:32:58.943Z,99917.08
2018-12-23T15:35:30.527Z,99924.27
2018-12-23T15:38:02.152Z,99905.41
2018-12-23T15:40:33.458Z,99895.03
2018-12-23T15:43:05.318Z,99917.16
2018-12-23T15:45:36.969Z,99912.34
2018-12-23T15:48:08.649Z,99900.67
2018-12-23T15:50:40.122Z,99900.88
2018-12-23T15:53:11.321Z,99902.09
2018-12-23T15:55:42.607Z,99897.08
2018-12-23T15:58:14.216Z,99891.83
2018-12-23T16:00:45.556Z,99893.87
2018-12-23T16:03:17.342Z,99893.29
2018-12-23T16:05:49.070Z,99880.69
2018-12-23T16:08:21.745Z,99879.70
2018-12-23T16:10:52.996Z,99872.59
2018-12-23T16:13:24.237Z,99860.48
2018-12-23T16:15:56.113Z,99861.32
2018-12-23T16:18:28.160Z,99856.38
2018-12-23T16:20:59.371Z,99847.18
2018-12-23T16:23:31.252Z,99848.75
2018-12-23T16:26:03.121Z,99844.64
2018-12-23T16:28:34.905Z,99843.56
2018-12-23T16:31:06.349Z,99843.84
2018-12-23T16:33:38.286Z,99833.34
2018-12-23T16:36:09.840Z,99822.25
2018-12-23T16:38:41.087Z,99831.38
2018-12-23T16:41:12.278Z,99828.23
2018-12-23T16:43:44.134Z,99824.34
2018-12-23T16:46:15.341Z,99814.69
2018-12-23T16:48:46.591Z,99811.29
2018-12-23T16:51:18.451Z,99807.39
2018-12-23T16:53:49.908Z,99804.06
2018-12-23T16:56:21.668Z,99806.81
2018-12-23T16:58:52.944Z,99814.38
2018-12-23T17:01:24.564Z,99806.81
2018-12-23T17:03:56.019Z,99809.18
2018-12-23T17:06:27.625Z,99799.50
2018-12-23T17:08:58.835Z,99791.49
2018-12-23T17:11:30.418Z,99800.72
2018-12-23T17:14:02.345Z,99793.77
2018-12-23T17:16:33.887Z,99793.69
2018-12-23T17:19:05.381Z,99784.59
2018-12-23T17:21:37.011Z,99778.52
2018-12-23T17:24:09.066Z,99782.33
2018-12-23T17:26:40.951Z,99781.39
2018-12-23T17:29:12.692Z,99770.64
2018-12-23T17:31:44.893Z,99783.54
2018-12-23T17:34:16.374Z,99780.23
2018-12-23T17:36:47.858Z,99775.28
2018-12-23T17:39:19.645Z,99775.98
2018-12-23T17:41:51.698Z,99768.11
2018-12-23T17:44:23.365Z,99762.54
2018-12-23T17:46:54.645Z,99762.45
2018-12-23T17:49:26.968Z,99759.24
2018-12-23T17:51:58.615Z,99766.95
2018-12-23T17:54:30.171Z,99762.68
2018-12-23T17:57:02.645Z,99764.83
2018-12-23T17:59:33.832Z,99760.00
2018-12-23T18:02:05.561Z,99762.97
2018-12-23T18:04:37.320Z,99771.83
2018-12-23T18:07:08.893Z,99779.30
2018-12-23T18:09:40.993Z,99769.38
2018-12-23T18:12:12.267Z,99772.34
2018-12-23T18:14:43.740Z,99772.57
2018-12-23T18:17:15.700Z,99759.69
2018-12-23T18:19:47.374Z,99752.72
2018-12-23T18:22:19.071Z,99760.19
2018-12-23T18:24:50.532Z,99756.89
2018-12-23T18:27:22.346Z,99759.72
2018-12-23T18:29:54.101Z,99764.22
2018-12-23T18:32:25.753Z,99760.22
2018-12-23T18:34:57.294Z,99745.92
2018-12-23T18:37:28.533Z,99753.16
2018-12-23T18:40:00.399Z,99742.63
2018-12-23T18:42:31.641Z,99740.02
2018-12-23T18:45:03.376Z,99744.52
2018-12-23T18:47:34.848Z,99742.97
2018-12-23T18:50:06.514Z,99743.36
2018-12-23T18:52:38.275Z,99745.16
2018-12-23T18:55:09.857Z,99743.25
2018-12-23T18:57:46.597Z,99740.89
2018-12-23T19:00:18.152Z,99742.06
2018-12-23T19:02:55.563Z,99739.22
2018-12-23T19:05:27.095Z,99739.01
2018-12-23T19:08:02.438Z,99740.53
2018-12-23T19:11:27.076Z,99733.41
2018-12-23T19:14:34.398Z,99733.41
2018-12-23T19:17:41.745Z,99724.28
2018-12-23T19:20:48.250Z,99715.28
2018-12-23T19:23:59.889Z,99724.29
2018-12-23T19:27:04.552Z,99720.72
2018-12-23T19:30:04.038Z,99724.05
2018-12-23T19:33:08.076Z,99722.02
2018-12-23T19:36:15.768Z,99720.80
2018-12-23T19:39:26.656Z,99723.41
2018-12-23T19:42:50.610Z,99722.36
2018-12-23T19:46:00.420Z,99721.14
2018-12-23T19:49:14.305Z,99717.13
2018-12-23T19:52:25.609Z,99712.86
2018-12-23T19:55:50.398Z,99710.27
2018-12-23T19:59:02.081Z,99704.66
2018-12-23T20:01:57.391Z,99703.72
2018-12-23T20:04:59.072Z,99712.95
2018-12-23T20:07:59.235Z,99702.75
2018-12-23T20:11:36.086Z,99710.67
2018-12-23T20:14:37.353Z,99706.88
2018-12-23T20:17:28.456Z,99703.66
2018-12-23T20:20:25.194Z,99700.33
2018-12-23T20:23:41.114Z,99702.67
2018-12-23T20:27:05.546Z,99696.16
2018-12-23T20:30:13.566Z,99686.69
2018-12-23T20:33:21.602Z,99697.10
2018-12-23T20:36:33.512Z,99689.03
2018-12-23T20:39:47.213Z,99689.35
2018-12-23T20:42:59.037Z,99688.42
2018-12-23T20:46:07.017Z,99680.45
2018-12-23T20:49:16.821Z,99667.47
2018-12-23T20:52:37.698Z,99671.07
2018-12-23T20:55:39.364Z,99663.05
2018-12-23T20:58:36.003Z,99658.41
2018-12-23T21:01:44.745Z,99646.43
2018-12-23T21:04:43.886Z,99636.73
2018-12-23T21:08:04.847Z,99645.48
2018-12-23T21:11:18.619Z,99640.54
2018-12-23T21:14:28.373Z,99650.27
2018-12-23T21:17:53.208Z,99653.92
2018-12-23T21:20:48.192Z,99643.57
2018-12-23T21:24:21.808Z,99650.37
2018-12-23T21:27:36.513Z,99643.19
2018-12-23T21:30:37.773Z,99652.75
2018-12-23T21:33:32.380Z,99644.40
2018-12-23T21:36:21.239Z,99645.98
2018-12-23T21:39:30.337Z,99638.45
2018-12-23T21:42:27.267Z,99643.31
2018-12-23T21:45:34.030Z,99629.17
2018-12-23T21:48:43.716Z,99622.60
2018-12-23T21:51:55.023Z,99625.21
2018-12-23T21:55:06.380Z,99621.03
2018-12-23T21:58:16.060Z,99626.72
2018-12-23T22:01:27.413Z,99625.21
2018-12-23T22:04:37.090Z,99615.10
2018-12-23T22:07:48.433Z,99607.64
2018-12-23T22:10:57.890Z,99595.40
2018-12-23T22:13:30.983Z,99593.70
2018-12-23T22:16:03.964Z,99593.38
2018-12-23T22:18:35.525Z,99590.89
2018-12-23T22:21:07.204Z,99584.84
2018-12-23T22:23:38.619Z,99575.38
2018-12-23T22:26:10.395Z,99587.89
2018-12-23T22:28:42.334Z,99581.11
2018-12-23T22:31:13.932Z,99577.33
2018-12-23T22:33:45.963Z,99592.09
2018-12-23T22:36:17.849Z,99583.08
2018-12-23T22:38:51.363Z,99576.73
2018-12-23T22:41:25.749Z,99569.51
2018-12-23T22:43:57.770Z,99566.59
2018-12-23T22:46:29.228Z,99569.27
2018-12-23T22:49:00.423Z,99567.41
2018-12-23T22:51:32.877Z,99561.29
2018-12-23T22:54:04.579Z,99568.64
2018-12-23T22:56:36.250Z,99556.50
2018-12-23T22:59:07.941Z,99547.02
2018-12-23T23:01:40.234Z,99555.20
2018-12-23T23:04:12.052Z,99552.71
2018-12-23T23:06:43.799Z,99549.47
2018-12-23T23:09:15.543Z,99553.62
2018-12-23T23:11:50.045Z,99544.20
2018-12-23T23:14:21.005Z,99533.50
2018-12-23T23:16:52.732Z,99531.28
2018-12-23T23:19:24.235Z,99516.64
2018-12-23T23:21:56.247Z,99518.42
2018-12-23T23:24:28.000Z,99514.39
2018-12-23T23:26:59.787Z,99513.84
2018-12-23T23:29:33.383Z,99498.23
2018-12-23T23:32:04.973Z,99510.55
2018-12-23T23:34:36.524Z,99513.06
2018-12-23T23:37:08.300Z,99495.84
2018-12-23T23:39:39.719Z,99497.60
2018-12-23T23:42:11.221Z,99496.86
2018-12-23T23:44:42.891Z,99503.72
2018-12-23T23:47:14.091Z,99509.36
2018-12-23T23:49:46.001Z,99510.67
2018-12-23T23:52:17.793Z,99519.25
2018-12-23T23:54:49.819Z,99512.20
2018-12-23T23:57:21.546Z,99502.99
2018-12-23T23:59:53.087Z,99507.79
